Kitimat, Canada
Current Conditions -  °F | °C
As of 4:00 AM on Thursday 23 Oct 2014 (Local Time) from CYXT Reporting Station
Light Rain Light Rain  
Wind Chill: 43°   Ceiling: 1100
Heat Index: 43°   Visibility: 3mi
Dew Point: 41°   Wind: 3mph
Humidity: 93%   Direction: 100°E
Pressure: 29.47"   Gusts: NA
Location:  54°N, 128.7°W
Report Text: CYXT 231100Z 10003KT 3SM -RA BR SCT004 OVC011 06/05 A2947 RMK SF3ST5 SLP987
Loading
Personal Weather Stations






























Interactive Weather Map
Tropical Storm Tracking
New forecast layout! Learn more

10-Day Weather Forecast

Advertisements
Track Severe Weather on mobile